sensor_id;sensor_type;location;lat;lon;timestamp;temperature;humidity
37594;DHT22;23441;50.856;6.076;2023-12-20T00:00:56;7.50;99.90
37594;DHT22;23441;50.856;6.076;2023-12-20T00:03:42;7.50;99.90
37594;DHT22;23441;50.856;6.076;2023-12-20T00:06:29;7.50;99.90
37594;DHT22;23441;50.856;6.076;2023-12-20T00:09:15;7.50;99.90
37594;DHT22;23441;50.856;6.076;2023-12-20T00:12:01;7.50;99.90
37594;DHT22;23441;50.856;6.076;2023-12-20T00:14:47;7.50;99.90
37594;DHT22;23441;50.856;6.076;2023-12-20T00:17:33;7.40;99.90
37594;DHT22;23441;50.856;6.076;2023-12-20T00:20:18;7.40;99.90
37594;DHT22;23441;50.856;6.076;2023-12-20T00:23:05;7.40;99.90
37594;DHT22;23441;50.856;6.076;2023-12-20T00:25:51;7.40;99.90
37594;DHT22;23441;50.856;6.076;2023-12-20T00:28:37;7.40;99.90
37594;DHT22;23441;50.856;6.076;2023-12-20T00:31:23;7.30;99.90
37594;DHT22;23441;50.856;6.076;2023-12-20T00:34:09;7.40;99.90
37594;DHT22;23441;50.856;6.076;2023-12-20T00:36:55;7.40;99.90
37594;DHT22;23441;50.856;6.076;2023-12-20T00:39:41;7.30;99.90
37594;DHT22;23441;50.856;6.076;2023-12-20T00:42:27;7.30;99.90
37594;DHT22;23441;50.856;6.076;2023-12-20T00:45:13;7.20;99.90
37594;DHT22;23441;50.856;6.076;2023-12-20T00:48:00;7.20;99.90
37594;DHT22;23441;50.856;6.076;2023-12-20T00:50:46;7.20;99.90
37594;DHT22;23441;50.856;6.076;2023-12-20T00:53:32;7.20;99.90
37594;DHT22;23441;50.856;6.076;2023-12-20T00:56:17;7.20;99.90
37594;DHT22;23441;50.856;6.076;2023-12-20T00:59:03;7.10;99.90
37594;DHT22;23441;50.856;6.076;2023-12-20T01:01:49;6.90;99.90
37594;DHT22;23441;50.856;6.076;2023-12-20T01:04:35;6.60;99.90
37594;DHT22;23441;50.856;6.076;2023-12-20T01:07:21;6.50;99.90
37594;DHT22;23441;50.856;6.076;2023-12-20T01:10:07;6.20;99.90
37594;DHT22;23441;50.856;6.076;2023-12-20T01:12:54;6.00;99.90
37594;DHT22;23441;50.856;6.076;2023-12-20T01:15:39;6.00;99.90
37594;DHT22;23441;50.856;6.076;2023-12-20T01:18:25;5.80;99.90
37594;DHT22;23441;50.856;6.076;2023-12-20T01:21:12;5.80;99.90
37594;DHT22;23441;50.856;6.076;2023-12-20T01:23:58;5.80;99.90
37594;DHT22;23441;50.856;6.076;2023-12-20T01:26:44;5.70;99.90
37594;DHT22;23441;50.856;6.076;2023-12-20T01:29:30;5.80;99.90
37594;DHT22;23441;50.856;6.076;2023-12-20T01:32:16;5.70;99.90
37594;DHT22;23441;50.856;6.076;2023-12-20T01:35:02;5.80;99.90
37594;DHT22;23441;50.856;6.076;2023-12-20T01:37:48;5.80;99.90
37594;DHT22;23441;50.856;6.076;2023-12-20T01:40:34;5.80;99.90
37594;DHT22;23441;50.856;6.076;2023-12-20T01:43:20;5.80;99.90
37594;DHT22;23441;50.856;6.076;2023-12-20T01:46:05;5.80;99.90
37594;DHT22;23441;50.856;6.076;2023-12-20T01:48:52;5.80;99.90
37594;DHT22;23441;50.856;6.076;2023-12-20T01:51:39;5.80;99.90
37594;DHT22;23441;50.856;6.076;2023-12-20T01:54:25;5.90;99.90
37594;DHT22;23441;50.856;6.076;2023-12-20T01:57:11;5.90;99.90
37594;DHT22;23441;50.856;6.076;2023-12-20T01:59:57;5.80;99.90
37594;DHT22;23441;50.856;6.076;2023-12-20T02:02:44;5.80;99.90
37594;DHT22;23441;50.856;6.076;2023-12-20T02:05:31;5.90;99.90
37594;DHT22;23441;50.856;6.076;2023-12-20T02:08:17;5.80;99.90
37594;DHT22;23441;50.856;6.076;2023-12-20T02:11:04;5.80;99.90
37594;DHT22;23441;50.856;6.076;2023-12-20T02:13:50;5.80;99.90
37594;DHT22;23441;50.856;6.076;2023-12-20T02:16:35;5.80;99.90
37594;DHT22;23441;50.856;6.076;2023-12-20T02:19:21;5.80;99.90
37594;DHT22;23441;50.856;6.076;2023-12-20T02:22:11;5.80;99.90
37594;DHT22;23441;50.856;6.076;2023-12-20T02:24:58;5.70;99.90
37594;DHT22;23441;50.856;6.076;2023-12-20T02:27:43;5.70;99.90
37594;DHT22;23441;50.856;6.076;2023-12-20T02:30:29;5.70;99.90
37594;DHT22;23441;50.856;6.076;2023-12-20T02:33:15;5.70;99.90
37594;DHT22;23441;50.856;6.076;2023-12-20T02:36:02;5.70;99.90
37594;DHT22;23441;50.856;6.076;2023-12-20T02:38:48;5.70;99.90
37594;DHT22;23441;50.856;6.076;2023-12-20T02:41:34;5.70;99.90
37594;DHT22;23441;50.856;6.076;2023-12-20T02:44:20;5.60;99.90
37594;DHT22;23441;50.856;6.076;2023-12-20T02:47:06;5.70;99.90
37594;DHT22;23441;50.856;6.076;2023-12-20T02:49:52;5.60;99.90
37594;DHT22;23441;50.856;6.076;2023-12-20T02:52:38;5.60;99.90
37594;DHT22;23441;50.856;6.076;2023-12-20T02:55:24;5.60;99.90
37594;DHT22;23441;50.856;6.076;2023-12-20T02:58:10;5.60;99.90
37594;DHT22;23441;50.856;6.076;2023-12-20T03:00:56;5.60;99.90
37594;DHT22;23441;50.856;6.076;2023-12-20T03:03:42;5.60;99.90
37594;DHT22;23441;50.856;6.076;2023-12-20T03:06:28;5.60;99.90
37594;DHT22;23441;50.856;6.076;2023-12-20T03:09:14;5.60;99.90
37594;DHT22;23441;50.856;6.076;2023-12-20T03:12:00;5.60;99.90
37594;DHT22;23441;50.856;6.076;2023-12-20T03:14:45;5.60;99.90
37594;DHT22;23441;50.856;6.076;2023-12-20T03:17:32;5.60;99.90
37594;DHT22;23441;50.856;6.076;2023-12-20T03:20:18;5.60;99.90
37594;DHT22;23441;50.856;6.076;2023-12-20T03:23:04;5.60;99.90
37594;DHT22;23441;50.856;6.076;2023-12-20T03:25:50;5.60;99.90
37594;DHT22;23441;50.856;6.076;2023-12-20T03:28:36;5.60;99.90
37594;DHT22;23441;50.856;6.076;2023-12-20T03:31:22;5.50;99.90
37594;DHT22;23441;50.856;6.076;2023-12-20T03:34:08;5.50;99.90
37594;DHT22;23441;50.856;6.076;2023-12-20T03:36:54;5.50;99.90
37594;DHT22;23441;50.856;6.076;2023-12-20T03:39:40;5.50;99.90
37594;DHT22;23441;50.856;6.076;2023-12-20T03:42:26;5.40;99.90
37594;DHT22;23441;50.856;6.076;2023-12-20T03:45:12;5.40;99.90
37594;DHT22;23441;50.856;6.076;2023-12-20T03:47:58;5.40;99.90
37594;DHT22;23441;50.856;6.076;2023-12-20T03:50:44;5.40;99.90
37594;DHT22;23441;50.856;6.076;2023-12-20T03:53:30;5.40;99.90
37594;DHT22;23441;50.856;6.076;2023-12-20T03:56:16;5.40;99.90
37594;DHT22;23441;50.856;6.076;2023-12-20T03:59:01;5.30;99.90
37594;DHT22;23441;50.856;6.076;2023-12-20T04:01:47;5.30;99.90
37594;DHT22;23441;50.856;6.076;2023-12-20T04:04:33;5.30;99.90
37594;DHT22;23441;50.856;6.076;2023-12-20T04:07:19;5.30;99.90
37594;DHT22;23441;50.856;6.076;2023-12-20T04:10:05;5.30;99.90
37594;DHT22;23441;50.856;6.076;2023-12-20T04:12:51;5.30;99.90
37594;DHT22;23441;50.856;6.076;2023-12-20T04:15:37;5.30;99.90
37594;DHT22;23441;50.856;6.076;2023-12-20T04:18:24;5.30;99.90
37594;DHT22;23441;50.856;6.076;2023-12-20T04:21:10;5.30;99.90
37594;DHT22;23441;50.856;6.076;2023-12-20T04:23:56;5.30;99.90
37594;DHT22;23441;50.856;6.076;2023-12-20T04:26:42;5.30;99.90
37594;DHT22;23441;50.856;6.076;2023-12-20T04:29:28;5.20;99.90
37594;DHT22;23441;50.856;6.076;2023-12-20T04:32:14;5.20;99.90
37594;DHT22;23441;50.856;6.076;2023-12-20T04:35:00;5.20;99.90
37594;DHT22;23441;50.856;6.076;2023-12-20T04:37:46;5.20;99.90
37594;DHT22;23441;50.856;6.076;2023-12-20T04:40:32;5.10;99.90
37594;DHT22;23441;50.856;6.076;2023-12-20T04:43:18;5.10;99.90
37594;DHT22;23441;50.856;6.076;2023-12-20T04:46:04;5.20;99.90
37594;DHT22;23441;50.856;6.076;2023-12-20T04:48:51;5.20;99.90
37594;DHT22;23441;50.856;6.076;2023-12-20T04:51:37;5.20;99.90
37594;DHT22;23441;50.856;6.076;2023-12-20T04:54:23;5.30;99.90
37594;DHT22;23441;50.856;6.076;2023-12-20T04:57:09;5.20;99.90
37594;DHT22;23441;50.856;6.076;2023-12-20T04:59:55;5.30;99.90
37594;DHT22;23441;50.856;6.076;2023-12-20T05:02:41;5.30;99.90
37594;DHT22;23441;50.856;6.076;2023-12-20T05:05:27;5.20;99.90
37594;DHT22;23441;50.856;6.076;2023-12-20T05:08:13;5.20;99.90
37594;DHT22;23441;50.856;6.076;2023-12-20T05:10:59;5.30;99.90
37594;DHT22;23441;50.856;6.076;2023-12-20T05:13:45;5.30;99.90
37594;DHT22;23441;50.856;6.076;2023-12-20T05:16:31;5.30;99.90
37594;DHT22;23441;50.856;6.076;2023-12-20T05:19:17;5.30;99.90
37594;DHT22;23441;50.856;6.076;2023-12-20T05:22:03;5.40;99.90
37594;DHT22;23441;50.856;6.076;2023-12-20T05:24:49;5.40;99.90
37594;DHT22;23441;50.856;6.076;2023-12-20T05:27:35;5.40;99.90
37594;DHT22;23441;50.856;6.076;2023-12-20T05:30:21;5.40;99.90
37594;DHT22;23441;50.856;6.076;2023-12-20T05:33:07;5.40;99.90
37594;DHT22;23441;50.856;6.076;2023-12-20T05:35:53;5.50;99.90
37594;DHT22;23441;50.856;6.076;2023-12-20T05:38:39;5.40;99.90
37594;DHT22;23441;50.856;6.076;2023-12-20T05:41:25;5.40;99.90
37594;DHT22;23441;50.856;6.076;2023-12-20T05:44:11;5.50;99.90
37594;DHT22;23441;50.856;6.076;2023-12-20T05:46:57;5.50;99.90
37594;DHT22;23441;50.856;6.076;2023-12-20T05:49:44;5.50;99.90
37594;DHT22;23441;50.856;6.076;2023-12-20T05:52:30;5.50;99.90
37594;DHT22;23441;50.856;6.076;2023-12-20T05:55:15;5.50;99.90
37594;DHT22;23441;50.856;6.076;2023-12-20T05:58:01;5.50;99.90
37594;DHT22;23441;50.856;6.076;2023-12-20T06:00:47;5.50;99.90
37594;DHT22;23441;50.856;6.076;2023-12-20T06:03:34;5.50;99.90
37594;DHT22;23441;50.856;6.076;2023-12-20T06:06:20;5.50;99.90
37594;DHT22;23441;50.856;6.076;2023-12-20T06:09:06;5.50;99.90
37594;DHT22;23441;50.856;6.076;2023-12-20T06:11:52;5.40;99.90
37594;DHT22;23441;50.856;6.076;2023-12-20T06:14:38;5.40;99.90
37594;DHT22;23441;50.856;6.076;2023-12-20T06:17:24;5.40;99.90
37594;DHT22;23441;50.856;6.076;2023-12-20T06:20:10;5.40;99.90
37594;DHT22;23441;50.856;6.076;2023-12-20T06:22:56;5.40;99.90
37594;DHT22;23441;50.856;6.076;2023-12-20T06:25:42;5.30;99.90
37594;DHT22;23441;50.856;6.076;2023-12-20T06:28:28;5.30;99.90
37594;DHT22;23441;50.856;6.076;2023-12-20T06:31:14;5.30;99.90
37594;DHT22;23441;50.856;6.076;2023-12-20T06:34:01;5.30;99.90
37594;DHT22;23441;50.856;6.076;2023-12-20T06:36:47;5.30;99.90
37594;DHT22;23441;50.856;6.076;2023-12-20T06:39:33;5.20;99.90
37594;DHT22;23441;50.856;6.076;2023-12-20T06:42:19;5.30;99.90
37594;DHT22;23441;50.856;6.076;2023-12-20T06:45:05;5.20;99.90
37594;DHT22;23441;50.856;6.076;2023-12-20T06:47:51;5.20;99.90
37594;DHT22;23441;50.856;6.076;2023-12-20T06:50:37;5.20;99.90
37594;DHT22;23441;50.856;6.076;2023-12-20T06:53:25;5.20;99.90
37594;DHT22;23441;50.856;6.076;2023-12-20T06:56:11;5.20;99.90
37594;DHT22;23441;50.856;6.076;2023-12-20T06:58:58;5.30;99.90
37594;DHT22;23441;50.856;6.076;2023-12-20T07:01:48;5.20;99.90
37594;DHT22;23441;50.856;6.076;2023-12-20T07:04:34;5.20;99.90
37594;DHT22;23441;50.856;6.076;2023-12-20T07:07:20;5.30;99.90
37594;DHT22;23441;50.856;6.076;2023-12-20T07:10:06;5.30;99.90
37594;DHT22;23441;50.856;6.076;2023-12-20T07:12:53;5.20;99.90
37594;DHT22;23441;50.856;6.076;2023-12-20T07:15:40;5.20;99.90
37594;DHT22;23441;50.856;6.076;2023-12-20T07:18:26;5.20;99.90
37594;DHT22;23441;50.856;6.076;2023-12-20T07:21:12;5.20;99.90
37594;DHT22;23441;50.856;6.076;2023-12-20T07:23:58;5.20;99.90
37594;DHT22;23441;50.856;6.076;2023-12-20T07:26:44;5.10;99.90
37594;DHT22;23441;50.856;6.076;2023-12-20T07:29:30;5.10;99.90
37594;DHT22;23441;50.856;6.076;2023-12-20T07:32:16;5.00;99.90
37594;DHT22;23441;50.856;6.076;2023-12-20T07:35:02;5.00;99.90
37594;DHT22;23441;50.856;6.076;2023-12-20T07:37:48;5.00;99.90
37594;DHT22;23441;50.856;6.076;2023-12-20T07:40:34;5.00;99.90
37594;DHT22;23441;50.856;6.076;2023-12-20T07:43:20;4.90;99.90
37594;DHT22;23441;50.856;6.076;2023-12-20T07:46:10;4.90;99.90
37594;DHT22;23441;50.856;6.076;2023-12-20T07:48:56;4.90;99.90
37594;DHT22;23441;50.856;6.076;2023-12-20T07:51:42;4.90;99.90
37594;DHT22;23441;50.856;6.076;2023-12-20T07:54:27;4.90;99.90
37594;DHT22;23441;50.856;6.076;2023-12-20T07:57:13;4.80;99.90
37594;DHT22;23441;50.856;6.076;2023-12-20T07:59:59;4.80;99.90
37594;DHT22;23441;50.856;6.076;2023-12-20T08:02:45;4.80;99.90
37594;DHT22;23441;50.856;6.076;2023-12-20T08:05:31;4.80;99.90
37594;DHT22;23441;50.856;6.076;2023-12-20T08:08:17;4.90;99.90
37594;DHT22;23441;50.856;6.076;2023-12-20T08:11:03;4.90;99.90
37594;DHT22;23441;50.856;6.076;2023-12-20T08:13:49;4.80;99.90
37594;DHT22;23441;50.856;6.076;2023-12-20T08:16:35;4.80;99.90
37594;DHT22;23441;50.856;6.076;2023-12-20T08:19:21;4.90;99.90
37594;DHT22;23441;50.856;6.076;2023-12-20T08:22:07;4.90;99.90
37594;DHT22;23441;50.856;6.076;2023-12-20T08:24:53;4.90;99.90
37594;DHT22;23441;50.856;6.076;2023-12-20T08:27:40;5.10;99.90
37594;DHT22;23441;50.856;6.076;2023-12-20T08:30:26;5.10;99.90
37594;DHT22;23441;50.856;6.076;2023-12-20T08:33:12;5.10;99.90
37594;DHT22;23441;50.856;6.076;2023-12-20T08:35:58;5.10;99.90
37594;DHT22;23441;50.856;6.076;2023-12-20T08:38:44;5.10;99.90
37594;DHT22;23441;50.856;6.076;2023-12-20T08:41:30;5.20;99.90
37594;DHT22;23441;50.856;6.076;2023-12-20T08:44:16;5.30;99.90
37594;DHT22;23441;50.856;6.076;2023-12-20T08:47:03;5.30;99.90
37594;DHT22;23441;50.856;6.076;2023-12-20T08:49:49;5.30;99.90
37594;DHT22;23441;50.856;6.076;2023-12-20T08:52:35;5.40;99.90
37594;DHT22;23441;50.856;6.076;2023-12-20T08:55:21;5.40;99.90
37594;DHT22;23441;50.856;6.076;2023-12-20T08:58:07;5.40;99.90
37594;DHT22;23441;50.856;6.076;2023-12-20T09:00:53;5.40;99.90
37594;DHT22;23441;50.856;6.076;2023-12-20T09:03:39;5.40;99.90
37594;DHT22;23441;50.856;6.076;2023-12-20T09:06:25;5.40;99.90
37594;DHT22;23441;50.856;6.076;2023-12-20T09:09:11;5.40;99.90
37594;DHT22;23441;50.856;6.076;2023-12-20T09:11:59;5.40;99.90
37594;DHT22;23441;50.856;6.076;2023-12-20T09:14:46;5.50;99.90
37594;DHT22;23441;50.856;6.076;2023-12-20T09:17:32;5.50;99.90
37594;DHT22;23441;50.856;6.076;2023-12-20T09:20:18;5.50;99.90
37594;DHT22;23441;50.856;6.076;2023-12-20T09:23:04;5.50;99.90
37594;DHT22;23441;50.856;6.076;2023-12-20T09:25:50;5.60;99.90
37594;DHT22;23441;50.856;6.076;2023-12-20T09:28:36;5.60;99.90
37594;DHT22;23441;50.856;6.076;2023-12-20T09:31:22;5.60;99.90
37594;DHT22;23441;50.856;6.076;2023-12-20T09:34:08;5.60;99.90
37594;DHT22;23441;50.856;6.076;2023-12-20T09:36:54;5.60;99.90
37594;DHT22;23441;50.856;6.076;2023-12-20T09:39:40;5.60;99.90
37594;DHT22;23441;50.856;6.076;2023-12-20T09:45:20;5.80;99.90
37594;DHT22;23441;50.856;6.076;2023-12-20T09:48:07;5.80;99.90
37594;DHT22;23441;50.856;6.076;2023-12-20T09:50:56;5.70;99.90
37594;DHT22;23441;50.856;6.076;2023-12-20T09:53:42;5.80;99.90
37594;DHT22;23441;50.856;6.076;2023-12-20T09:56:29;5.90;99.90
37594;DHT22;23441;50.856;6.076;2023-12-20T09:59:15;5.80;99.90
37594;DHT22;23441;50.856;6.076;2023-12-20T10:02:01;5.90;99.90
37594;DHT22;23441;50.856;6.076;2023-12-20T10:04:51;5.90;99.90
37594;DHT22;23441;50.856;6.076;2023-12-20T10:07:37;5.90;99.90
37594;DHT22;23441;50.856;6.076;2023-12-20T10:10:23;5.90;99.90
37594;DHT22;23441;50.856;6.076;2023-12-20T10:13:11;5.90;99.90
37594;DHT22;23441;50.856;6.076;2023-12-20T10:15:57;5.90;99.90
37594;DHT22;23441;50.856;6.076;2023-12-20T10:18:43;5.90;99.90
37594;DHT22;23441;50.856;6.076;2023-12-20T10:21:30;6.00;99.90
37594;DHT22;23441;50.856;6.076;2023-12-20T10:24:19;6.00;99.90
37594;DHT22;23441;50.856;6.076;2023-12-20T10:27:07;6.00;99.90
37594;DHT22;23441;50.856;6.076;2023-12-20T10:29:53;6.00;99.90
37594;DHT22;23441;50.856;6.076;2023-12-20T10:32:39;6.00;99.90
37594;DHT22;23441;50.856;6.076;2023-12-20T10:35:25;6.10;99.90
37594;DHT22;23441;50.856;6.076;2023-12-20T10:38:11;6.10;99.90
37594;DHT22;23441;50.856;6.076;2023-12-20T10:41:01;6.10;99.90
37594;DHT22;23441;50.856;6.076;2023-12-20T10:43:51;6.10;99.90
37594;DHT22;23441;50.856;6.076;2023-12-20T10:46:39;6.10;99.90
37594;DHT22;23441;50.856;6.076;2023-12-20T10:49:26;6.10;99.90
37594;DHT22;23441;50.856;6.076;2023-12-20T10:52:12;6.10;99.90
37594;DHT22;23441;50.856;6.076;2023-12-20T10:54:58;6.10;99.90
37594;DHT22;23441;50.856;6.076;2023-12-20T10:57:46;6.10;99.90
37594;DHT22;23441;50.856;6.076;2023-12-20T11:00:39;6.00;99.90
37594;DHT22;23441;50.856;6.076;2023-12-20T11:03:34;6.00;99.90
37594;DHT22;23441;50.856;6.076;2023-12-20T11:06:49;6.00;99.90
37594;DHT22;23441;50.856;6.076;2023-12-20T11:09:41;6.10;99.90
37594;DHT22;23441;50.856;6.076;2023-12-20T11:12:42;6.10;99.90
37594;DHT22;23441;50.856;6.076;2023-12-20T11:15:31;6.20;99.90
37594;DHT22;23441;50.856;6.076;2023-12-20T11:18:16;6.10;99.90
37594;DHT22;23441;50.856;6.076;2023-12-20T11:21:04;6.20;99.90
37594;DHT22;23441;50.856;6.076;2023-12-20T11:23:50;6.20;99.90
37594;DHT22;23441;50.856;6.076;2023-12-20T11:26:36;6.30;99.90
37594;DHT22;23441;50.856;6.076;2023-12-20T11:29:35;6.20;99.90
37594;DHT22;23441;50.856;6.076;2023-12-20T11:37:59;6.30;99.90
37594;DHT22;23441;50.856;6.076;2023-12-20T11:40:48;6.30;99.90
37594;DHT22;23441;50.856;6.076;2023-12-20T11:43:36;6.30;99.90
37594;DHT22;23441;50.856;6.076;2023-12-20T11:46:23;6.40;99.90
37594;DHT22;23441;50.856;6.076;2023-12-20T11:49:09;6.50;99.90
37594;DHT22;23441;50.856;6.076;2023-12-20T11:51:55;6.50;99.90
37594;DHT22;23441;50.856;6.076;2023-12-20T11:54:41;6.50;99.90
37594;DHT22;23441;50.856;6.076;2023-12-20T11:57:27;6.50;99.90
37594;DHT22;23441;50.856;6.076;2023-12-20T12:00:14;6.50;99.90
37594;DHT22;23441;50.856;6.076;2023-12-20T12:03:00;6.50;99.90
37594;DHT22;23441;50.856;6.076;2023-12-20T12:05:48;6.50;99.90
37594;DHT22;23441;50.856;6.076;2023-12-20T12:08:35;6.50;99.90
37594;DHT22;23441;50.856;6.076;2023-12-20T12:11:22;6.50;99.90
37594;DHT22;23441;50.856;6.076;2023-12-20T12:14:08;6.60;99.90
37594;DHT22;23441;50.856;6.076;2023-12-20T12:16:54;6.50;99.90
37594;DHT22;23441;50.856;6.076;2023-12-20T12:19:41;6.50;99.90
37594;DHT22;23441;50.856;6.076;2023-12-20T12:22:27;6.50;99.90
37594;DHT22;23441;50.856;6.076;2023-12-20T12:25:13;6.50;99.90
37594;DHT22;23441;50.856;6.076;2023-12-20T12:28:00;6.50;99.90
37594;DHT22;23441;50.856;6.076;2023-12-20T12:30:58;6.50;99.90
37594;DHT22;23441;50.856;6.076;2023-12-20T12:33:45;6.60;99.90
37594;DHT22;23441;50.856;6.076;2023-12-20T12:36:33;6.60;99.90
37594;DHT22;23441;50.856;6.076;2023-12-20T12:39:18;6.60;99.90
37594;DHT22;23441;50.856;6.076;2023-12-20T12:42:04;6.60;99.90
37594;DHT22;23441;50.856;6.076;2023-12-20T12:44:50;6.50;99.90
37594;DHT22;23441;50.856;6.076;2023-12-20T12:47:36;6.50;99.90
37594;DHT22;23441;50.856;6.076;2023-12-20T12:50:22;6.40;99.90
37594;DHT22;23441;50.856;6.076;2023-12-20T12:53:08;6.40;99.90
37594;DHT22;23441;50.856;6.076;2023-12-20T12:55:54;6.40;99.90
37594;DHT22;23441;50.856;6.076;2023-12-20T12:58:41;6.40;99.90
37594;DHT22;23441;50.856;6.076;2023-12-20T13:01:27;6.40;99.90
37594;DHT22;23441;50.856;6.076;2023-12-20T13:04:13;6.40;99.90
37594;DHT22;23441;50.856;6.076;2023-12-20T13:06:59;6.50;99.90
37594;DHT22;23441;50.856;6.076;2023-12-20T13:09:45;6.50;99.90
37594;DHT22;23441;50.856;6.076;2023-12-20T13:12:31;6.50;99.90
37594;DHT22;23441;50.856;6.076;2023-12-20T13:15:17;6.50;99.90
37594;DHT22;23441;50.856;6.076;2023-12-20T13:18:04;6.50;99.90
37594;DHT22;23441;50.856;6.076;2023-12-20T13:20:51;6.50;99.90
37594;DHT22;23441;50.856;6.076;2023-12-20T13:23:37;6.50;99.90
37594;DHT22;23441;50.856;6.076;2023-12-20T13:26:23;6.50;99.90
37594;DHT22;23441;50.856;6.076;2023-12-20T13:29:09;6.50;99.90
37594;DHT22;23441;50.856;6.076;2023-12-20T13:31:55;6.50;99.90
37594;DHT22;23441;50.856;6.076;2023-12-20T13:34:42;6.50;99.90
37594;DHT22;23441;50.856;6.076;2023-12-20T13:37:28;6.50;99.90
37594;DHT22;23441;50.856;6.076;2023-12-20T13:40:14;6.50;99.90
37594;DHT22;23441;50.856;6.076;2023-12-20T13:43:00;6.60;99.90
37594;DHT22;23441;50.856;6.076;2023-12-20T13:45:48;6.60;99.90
37594;DHT22;23441;50.856;6.076;2023-12-20T13:48:34;6.50;99.90
37594;DHT22;23441;50.856;6.076;2023-12-20T13:51:20;6.70;99.90
37594;DHT22;23441;50.856;6.076;2023-12-20T13:54:06;6.70;99.90
37594;DHT22;23441;50.856;6.076;2023-12-20T13:56:52;6.70;99.90
37594;DHT22;23441;50.856;6.076;2023-12-20T13:59:38;6.70;99.90
37594;DHT22;23441;50.856;6.076;2023-12-20T14:02:24;6.70;99.90
37594;DHT22;23441;50.856;6.076;2023-12-20T14:05:12;6.70;99.90
37594;DHT22;23441;50.856;6.076;2023-12-20T14:08:00;6.70;99.90
37594;DHT22;23441;50.856;6.076;2023-12-20T14:10:46;6.70;99.90
37594;DHT22;23441;50.856;6.076;2023-12-20T14:13:32;6.70;99.90
37594;DHT22;23441;50.856;6.076;2023-12-20T14:16:17;6.80;99.90
37594;DHT22;23441;50.856;6.076;2023-12-20T14:19:04;6.70;99.90
37594;DHT22;23441;50.856;6.076;2023-12-20T14:21:50;6.70;99.90
37594;DHT22;23441;50.856;6.076;2023-12-20T14:24:36;6.80;99.90
37594;DHT22;23441;50.856;6.076;2023-12-20T14:27:23;6.80;99.90
37594;DHT22;23441;50.856;6.076;2023-12-20T14:30:10;6.80;99.90
37594;DHT22;23441;50.856;6.076;2023-12-20T14:32:56;6.80;99.90
37594;DHT22;23441;50.856;6.076;2023-12-20T14:35:42;6.80;99.90
37594;DHT22;23441;50.856;6.076;2023-12-20T14:38:30;6.90;99.90
37594;DHT22;23441;50.856;6.076;2023-12-20T14:41:16;6.80;99.90
37594;DHT22;23441;50.856;6.076;2023-12-20T14:44:03;6.90;99.90
37594;DHT22;23441;50.856;6.076;2023-12-20T14:46:51;6.90;99.90
37594;DHT22;23441;50.856;6.076;2023-12-20T14:49:37;6.80;99.90
37594;DHT22;23441;50.856;6.076;2023-12-20T14:52:23;6.90;99.90
37594;DHT22;23441;50.856;6.076;2023-12-20T14:55:09;6.90;99.90
37594;DHT22;23441;50.856;6.076;2023-12-20T14:57:55;6.90;99.90
37594;DHT22;23441;50.856;6.076;2023-12-20T15:00:41;6.90;99.90
37594;DHT22;23441;50.856;6.076;2023-12-20T15:03:27;6.90;99.90
37594;DHT22;23441;50.856;6.076;2023-12-20T15:06:14;6.90;99.90
37594;DHT22;23441;50.856;6.076;2023-12-20T15:09:00;6.90;99.90
37594;DHT22;23441;50.856;6.076;2023-12-20T15:11:48;6.80;99.90
37594;DHT22;23441;50.856;6.076;2023-12-20T15:14:34;6.80;99.90
37594;DHT22;23441;50.856;6.076;2023-12-20T15:17:20;6.80;99.90
37594;DHT22;23441;50.856;6.076;2023-12-20T15:20:07;6.80;99.90
37594;DHT22;23441;50.856;6.076;2023-12-20T15:22:55;6.80;99.90
37594;DHT22;23441;50.856;6.076;2023-12-20T15:25:44;6.80;99.90
37594;DHT22;23441;50.856;6.076;2023-12-20T15:28:30;6.80;99.90
37594;DHT22;23441;50.856;6.076;2023-12-20T15:31:16;6.80;99.90
37594;DHT22;23441;50.856;6.076;2023-12-20T15:34:02;6.80;99.90
37594;DHT22;23441;50.856;6.076;2023-12-20T15:36:48;6.80;99.90
37594;DHT22;23441;50.856;6.076;2023-12-20T15:39:34;6.90;99.90
37594;DHT22;23441;50.856;6.076;2023-12-20T15:42:20;6.90;99.90
37594;DHT22;23441;50.856;6.076;2023-12-20T15:45:07;6.90;99.90
37594;DHT22;23441;50.856;6.076;2023-12-20T15:47:53;6.90;99.90
37594;DHT22;23441;50.856;6.076;2023-12-20T15:50:39;6.90;99.90
37594;DHT22;23441;50.856;6.076;2023-12-20T15:53:24;6.90;99.90
37594;DHT22;23441;50.856;6.076;2023-12-20T15:56:10;6.90;99.90
37594;DHT22;23441;50.856;6.076;2023-12-20T15:58:57;6.90;99.90
37594;DHT22;23441;50.856;6.076;2023-12-20T16:01:44;6.90;99.90
37594;DHT22;23441;50.856;6.076;2023-12-20T16:04:30;7.00;99.90
37594;DHT22;23441;50.856;6.076;2023-12-20T16:07:16;6.90;99.90
37594;DHT22;23441;50.856;6.076;2023-12-20T16:10:02;7.00;99.90
37594;DHT22;23441;50.856;6.076;2023-12-20T16:12:48;7.00;99.90
37594;DHT22;23441;50.856;6.076;2023-12-20T16:15:34;7.00;99.90
37594;DHT22;23441;50.856;6.076;2023-12-20T16:18:20;7.00;99.90
37594;DHT22;23441;50.856;6.076;2023-12-20T16:21:06;7.00;99.90
37594;DHT22;23441;50.856;6.076;2023-12-20T16:23:52;7.00;99.90
37594;DHT22;23441;50.856;6.076;2023-12-20T16:26:38;7.00;99.90
37594;DHT22;23441;50.856;6.076;2023-12-20T16:29:24;7.10;99.90
37594;DHT22;23441;50.856;6.076;2023-12-20T16:32:10;7.10;99.90
37594;DHT22;23441;50.856;6.076;2023-12-20T16:34:56;7.10;99.90
37594;DHT22;23441;50.856;6.076;2023-12-20T16:37:42;7.10;99.90
37594;DHT22;23441;50.856;6.076;2023-12-20T16:40:28;7.10;99.90
37594;DHT22;23441;50.856;6.076;2023-12-20T16:43:14;7.10;99.90
37594;DHT22;23441;50.856;6.076;2023-12-20T16:46:00;7.10;99.90
37594;DHT22;23441;50.856;6.076;2023-12-20T16:48:46;7.20;99.90
37594;DHT22;23441;50.856;6.076;2023-12-20T16:51:32;7.20;99.90
37594;DHT22;23441;50.856;6.076;2023-12-20T16:54:19;7.20;99.90
37594;DHT22;23441;50.856;6.076;2023-12-20T16:57:05;7.20;99.90
37594;DHT22;23441;50.856;6.076;2023-12-20T16:59:51;7.20;99.90
37594;DHT22;23441;50.856;6.076;2023-12-20T17:02:37;7.30;99.90
37594;DHT22;23441;50.856;6.076;2023-12-20T17:05:23;7.30;99.90
37594;DHT22;23441;50.856;6.076;2023-12-20T17:08:09;7.30;99.90
37594;DHT22;23441;50.856;6.076;2023-12-20T17:10:55;7.30;99.90
37594;DHT22;23441;50.856;6.076;2023-12-20T17:13:41;7.30;99.90
37594;DHT22;23441;50.856;6.076;2023-12-20T17:16:27;7.40;99.90
37594;DHT22;23441;50.856;6.076;2023-12-20T17:19:12;7.30;99.90
37594;DHT22;23441;50.856;6.076;2023-12-20T17:21:58;7.30;99.90
37594;DHT22;23441;50.856;6.076;2023-12-20T17:24:44;7.30;99.90
37594;DHT22;23441;50.856;6.076;2023-12-20T17:27:30;7.30;99.90
37594;DHT22;23441;50.856;6.076;2023-12-20T17:30:16;7.30;99.90
37594;DHT22;23441;50.856;6.076;2023-12-20T17:33:02;7.40;99.90
37594;DHT22;23441;50.856;6.076;2023-12-20T17:35:49;7.40;99.90
37594;DHT22;23441;50.856;6.076;2023-12-20T17:38:35;7.40;99.90
37594;DHT22;23441;50.856;6.076;2023-12-20T17:41:23;7.40;99.90
37594;DHT22;23441;50.856;6.076;2023-12-20T17:44:09;7.40;99.90
37594;DHT22;23441;50.856;6.076;2023-12-20T17:46:55;7.50;99.90
37594;DHT22;23441;50.856;6.076;2023-12-20T17:49:41;7.50;99.90
37594;DHT22;23441;50.856;6.076;2023-12-20T17:52:27;7.50;99.90
37594;DHT22;23441;50.856;6.076;2023-12-20T17:55:13;7.50;99.90